createdAt,value
2022-07-31T04:00:32.477Z,16.69
2022-07-31T04:03:08.613Z,16.70
2022-07-31T04:05:54.753Z,16.74
2022-07-31T04:08:24.674Z,16.77
2022-07-31T04:10:52.564Z,16.78
2022-07-31T04:13:21.705Z,16.81
2022-07-31T04:15:49.560Z,16.82
2022-07-31T04:18:17.268Z,16.86
2022-07-31T04:20:46.725Z,16.88
2022-07-31T04:23:14.672Z,16.88
2022-07-31T04:26:25.530Z,16.89
2022-07-31T04:29:03.211Z,16.90
2022-07-31T04:31:31.927Z,16.90
2022-07-31T04:34:02.579Z,16.89
2022-07-31T04:36:30.983Z,16.88
2022-07-31T04:39:01.259Z,16.87
2022-07-31T04:41:29.893Z,16.81
2022-07-31T04:43:57.530Z,16.75
2022-07-31T04:46:26.451Z,16.70
2022-07-31T04:48:55.494Z,16.68
2022-07-31T04:51:26.715Z,16.67
2022-07-31T04:53:54.213Z,16.64
2022-07-31T04:56:41.673Z,16.67
2022-07-31T04:59:11.449Z,16.67
2022-07-31T05:01:42.734Z,16.67
2022-07-31T05:04:11.897Z,16.69
2022-07-31T05:06:45.454Z,16.72
2022-07-31T05:09:19.107Z,16.76
2022-07-31T05:11:49.590Z,16.76
2022-07-31T05:14:19.865Z,16.78
2022-07-31T05:16:47.286Z,16.76
2022-07-31T05:19:16.782Z,16.74
2022-07-31T05:22:04.787Z,16.72
2022-07-31T05:24:43.289Z,16.69
2022-07-31T05:27:13.172Z,16.67
2022-07-31T05:29:42.327Z,16.63
2022-07-31T05:32:10.080Z,16.63
2022-07-31T05:34:37.731Z,16.63
2022-07-31T05:37:05.407Z,16.62
2022-07-31T05:39:35.598Z,16.59
2022-07-31T05:42:21.684Z,16.59
2022-07-31T05:45:09.770Z,16.57
2022-07-31T05:47:40.765Z,16.52
2022-07-31T05:50:10.190Z,16.48
2022-07-31T05:52:38.310Z,16.44
2022-07-31T05:55:13.424Z,16.40
2022-07-31T05:58:00.544Z,16.41
2022-07-31T06:00:29.953Z,16.41
2022-07-31T06:03:01.903Z,16.36
2022-07-31T06:05:56.960Z,16.37
2022-07-31T06:08:25.932Z,16.39
2022-07-31T06:10:53.731Z,16.37
2022-07-31T06:13:25.284Z,16.34
2022-07-31T06:15:53.551Z,16.36
2022-07-31T06:18:22.188Z,16.37
2022-07-31T06:20:50.998Z,16.38
2022-07-31T06:23:22.913Z,16.39
2022-07-31T06:26:06.353Z,16.41
2022-07-31T06:28:48.074Z,16.48
2022-07-31T06:31:22.661Z,16.51
2022-07-31T06:33:53.008Z,16.48
2022-07-31T06:36:23.973Z,16.44
2022-07-31T06:39:14.632Z,16.44
2022-07-31T06:42:27.052Z,16.45
2022-07-31T06:45:08.690Z,16.48
2022-07-31T06:47:57.505Z,16.52
2022-07-31T06:50:49.076Z,16.58
2022-07-31T06:53:31.928Z,16.66
2022-07-31T06:56:00.072Z,16.73
2022-07-31T06:58:27.781Z,16.78
2022-07-31T07:00:55.258Z,16.90
2022-07-31T07:03:22.418Z,17.03
2022-07-31T07:05:49.844Z,17.15
2022-07-31T07:08:16.902Z,17.21
2022-07-31T07:10:45.711Z,17.25
2022-07-31T07:13:45.714Z,17.26
2022-07-31T07:16:18.097Z,17.26
2022-07-31T07:18:45.818Z,17.26
2022-07-31T07:21:13.015Z,17.25
2022-07-31T07:23:41.030Z,17.21
2022-07-31T07:26:22.926Z,17.15
2022-07-31T07:28:50.332Z,17.08
2022-07-31T07:31:19.171Z,17.04
2022-07-31T07:33:48.414Z,17.05
2022-07-31T07:36:23.898Z,17.07
2022-07-31T07:39:18.483Z,17.03
2022-07-31T07:41:46.634Z,17.04
2022-07-31T07:44:14.356Z,17.01
2022-07-31T07:46:42.580Z,17.05
2022-07-31T07:49:12.032Z,17.06
2022-07-31T07:52:15.702Z,17.07
2022-07-31T07:55:05.258Z,17.05
2022-07-31T07:57:51.934Z,17.07
2022-07-31T08:00:46.487Z,17.11
2022-07-31T08:03:49.801Z,17.14
2022-07-31T08:06:02.064Z,17.19
2022-07-31T08:08:29.930Z,17.23
2022-07-31T08:11:20.202Z,17.23
2022-07-31T08:14:38.597Z,17.21
2022-07-31T08:17:29.320Z,17.14
2022-07-31T08:19:58.499Z,17.07
2022-07-31T08:22:26.822Z,17.02
2022-07-31T08:24:56.472Z,17.02
2022-07-31T08:27:24.093Z,17.04
2022-07-31T08:30:08.465Z,17.04
2022-07-31T08:32:36.506Z,17.04
2022-07-31T08:35:19.323Z,17.12
2022-07-31T08:37:51.276Z,17.15
2022-07-31T08:40:43.201Z,17.21
2022-07-31T08:44:01.831Z,17.25
2022-07-31T08:46:04.798Z,17.31
2022-07-31T08:48:41.280Z,17.34
2022-07-31T08:51:12.459Z,17.35
2022-07-31T08:54:01.919Z,17.33
2022-07-31T08:56:30.158Z,17.26
2022-07-31T08:58:59.538Z,17.23
2022-07-31T09:01:27.871Z,17.27
2022-07-31T09:03:58.634Z,17.27
2022-07-31T09:06:26.417Z,17.28
2022-07-31T09:08:56.646Z,17.32
2022-07-31T09:11:24.524Z,17.29
2022-07-31T09:14:04.440Z,17.25
2022-07-31T09:16:50.462Z,17.21
2022-07-31T09:19:54.178Z,17.15
2022-07-31T09:23:09.582Z,17.17
2022-07-31T09:25:52.656Z,17.24
2022-07-31T09:28:25.017Z,17.30
2022-07-31T09:30:56.104Z,17.30
2022-07-31T09:33:42.332Z,17.30
2022-07-31T09:36:36.992Z,17.32
2022-07-31T09:39:35.979Z,17.36
2022-07-31T09:42:36.376Z,17.36
2022-07-31T09:45:22.252Z,17.38
2022-07-31T09:48:15.137Z,17.41
2022-07-31T09:50:55.355Z,17.43
2022-07-31T09:53:24.703Z,17.45
2022-07-31T09:55:58.286Z,17.49
2022-07-31T09:58:26.072Z,17.49
2022-07-31T10:00:56.500Z,17.48
2022-07-31T10:03:26.685Z,17.48
2022-07-31T10:05:56.318Z,17.42
2022-07-31T10:08:28.960Z,17.37
2022-07-31T10:11:20.264Z,17.26
2022-07-31T10:13:59.702Z,17.18
2022-07-31T10:16:31.823Z,17.14
2022-07-31T10:19:19.764Z,17.13
2022-07-31T10:22:12.957Z,17.20
2022-07-31T10:24:45.751Z,17.20
2022-07-31T10:27:18.662Z,17.22
2022-07-31T10:29:52.701Z,17.22
2022-07-31T10:32:22.385Z,17.19
2022-07-31T10:35:09.578Z,17.21
2022-07-31T10:38:35.399Z,17.22
2022-07-31T10:41:36.400Z,17.22
2022-07-31T10:44:44.000Z,17.22
2022-07-31T10:47:33.883Z,17.12
2022-07-31T10:50:33.861Z,17.13
2022-07-31T10:53:15.363Z,17.11
2022-07-31T10:56:04.947Z,17.13
2022-07-31T10:59:01.589Z,17.12
2022-07-31T11:01:52.805Z,17.14
2022-07-31T11:04:41.952Z,17.18
2022-07-31T11:07:30.640Z,17.18
2022-07-31T11:10:53.792Z,17.24
2022-07-31T11:13:55.433Z,17.28
2022-07-31T11:16:55.486Z,17.24
2022-07-31T11:19:43.626Z,17.24
2022-07-31T11:22:32.363Z,17.24
2022-07-31T11:25:01.634Z,17.25
2022-07-31T11:27:31.657Z,17.30
2022-07-31T11:30:12.432Z,17.33
2022-07-31T11:32:53.525Z,17.33
2022-07-31T11:35:30.144Z,17.27
2022-07-31T11:37:59.820Z,17.31
2022-07-31T11:40:28.452Z,17.36
2022-07-31T11:43:25.377Z,17.37
2022-07-31T11:45:55.871Z,17.38
2022-07-31T11:48:27.725Z,17.44
2022-07-31T11:50:56.075Z,17.49
2022-07-31T11:53:24.084Z,17.49
2022-07-31T11:55:54.468Z,17.49
2022-07-31T11:58:24.001Z,17.49
2022-07-31T12:00:54.964Z,17.52
2022-07-31T12:03:39.157Z,17.54
2022-07-31T12:06:08.606Z,17.56
2022-07-31T12:08:38.250Z,17.52
2022-07-31T12:11:09.148Z,17.54
2022-07-31T12:13:38.512Z,17.53
2022-07-31T12:16:11.251Z,17.49
2022-07-31T12:18:50.243Z,17.45
2022-07-31T12:21:19.336Z,17.37
2022-07-31T12:23:53.181Z,17.32
2022-07-31T12:26:28.182Z,17.26
2022-07-31T12:29:19.873Z,17.26
2022-07-31T12:31:52.809Z,17.20
2022-07-31T12:34:27.571Z,17.14
2022-07-31T12:37:04.039Z,17.12
2022-07-31T12:39:54.251Z,17.09
2022-07-31T12:42:34.061Z,17.07
2022-07-31T12:45:18.406Z,17.07
2022-07-31T12:47:54.456Z,17.10
2022-07-31T12:50:24.611Z,17.08
2022-07-31T12:52:53.344Z,17.06
2022-07-31T12:55:22.451Z,17.08
2022-07-31T12:57:52.180Z,17.08
2022-07-31T13:00:23.290Z,17.06
2022-07-31T13:02:52.130Z,17.07
2022-07-31T13:05:20.264Z,17.09
2022-07-31T13:07:48.825Z,17.10
2022-07-31T13:10:21.973Z,17.09
2022-07-31T13:12:52.313Z,17.04
2022-07-31T13:15:23.078Z,17.04
2022-07-31T13:17:51.068Z,17.05
2022-07-31T13:20:18.785Z,17.01
2022-07-31T13:22:46.493Z,17.01
2022-07-31T13:25:14.096Z,17.03
2022-07-31T13:27:41.657Z,17.01
2022-07-31T13:30:09.744Z,16.98
2022-07-31T13:32:37.549Z,16.95
2022-07-31T13:35:26.983Z,16.97
2022-07-31T13:37:53.913Z,17.01
2022-07-31T13:40:42.013Z,17.05
2022-07-31T13:43:09.559Z,17.09
2022-07-31T13:45:37.178Z,17.05
2022-07-31T13:48:09.333Z,17.02
2022-07-31T13:50:42.208Z,16.99
2022-07-31T13:53:10.856Z,16.99
2022-07-31T13:55:39.489Z,16.97
2022-07-31T13:58:08.329Z,16.96
2022-07-31T14:00:36.632Z,17.01
2022-07-31T14:03:04.379Z,17.04
2022-07-31T14:05:32.627Z,17.08
2022-07-31T14:08:33.456Z,17.10
2022-07-31T14:10:59.001Z,17.13
2022-07-31T14:13:28.708Z,17.19
2022-07-31T14:15:56.976Z,17.18
2022-07-31T14:18:25.060Z,17.18
2022-07-31T14:20:53.274Z,17.19
2022-07-31T14:23:21.119Z,17.18
2022-07-31T14:26:02.511Z,17.17
2022-07-31T14:28:31.218Z,17.18
2022-07-31T14:30:59.063Z,17.13
2022-07-31T14:33:27.202Z,17.09
2022-07-31T14:35:54.650Z,16.98
2022-07-31T14:38:27.452Z,16.88
2022-07-31T14:40:55.944Z,16.82
2022-07-31T14:43:23.176Z,16.74
2022-07-31T14:45:52.150Z,16.73
2022-07-31T14:48:21.808Z,16.71
2022-07-31T14:50:48.839Z,16.71
2022-07-31T14:53:16.972Z,16.70
2022-07-31T14:55:44.669Z,16.66
2022-07-31T14:58:11.727Z,16.66
2022-07-31T15:00:38.601Z,16.66
2022-07-31T15:03:06.875Z,16.66
2022-07-31T15:06:41.932Z,16.60
2022-07-31T15:08:22.663Z,16.59
2022-07-31T15:10:49.589Z,16.61
2022-07-31T15:13:16.618Z,16.62
2022-07-31T15:15:45.361Z,16.61
2022-07-31T15:18:12.930Z,16.60
2022-07-31T15:20:40.639Z,16.60
2022-07-31T15:23:08.068Z,16.58
2022-07-31T15:25:36.452Z,16.56
2022-07-31T15:28:04.383Z,16.51
2022-07-31T15:30:32.515Z,16.47
2022-07-31T15:33:00.266Z,16.45
2022-07-31T15:35:29.246Z,16.45
2022-07-31T15:38:09.183Z,16.49
2022-07-31T15:40:36.934Z,16.48
2022-07-31T15:43:05.217Z,16.42
2022-07-31T15:45:33.296Z,16.40
2022-07-31T15:48:01.389Z,16.40
2022-07-31T15:50:29.213Z,16.37
2022-07-31T15:52:57.482Z,16.33
2022-07-31T15:55:26.412Z,16.31
2022-07-31T15:57:55.586Z,16.28
2022-07-31T16:00:24.481Z,16.25
2022-07-31T16:02:52.520Z,16.26
2022-07-31T16:05:35.849Z,16.27
2022-07-31T16:08:30.919Z,16.29
2022-07-31T16:10:55.901Z,16.28
2022-07-31T16:13:25.068Z,16.26
2022-07-31T16:15:53.942Z,16.27
2022-07-31T16:18:21.919Z,16.31
2022-07-31T16:20:49.892Z,16.31
2022-07-31T16:23:17.697Z,16.32
2022-07-31T16:25:45.373Z,16.31
2022-07-31T16:28:14.938Z,16.31
2022-07-31T16:30:45.686Z,16.35
2022-07-31T16:33:14.269Z,16.37
2022-07-31T16:35:42.852Z,16.36
2022-07-31T16:38:10.538Z,16.38
2022-07-31T16:40:38.330Z,16.40
2022-07-31T16:43:46.807Z,16.43
2022-07-31T16:45:56.565Z,16.46
2022-07-31T16:48:24.405Z,16.48
2022-07-31T16:50:53.236Z,16.48
2022-07-31T16:54:12.046Z,16.49
2022-07-31T16:56:13.837Z,16.52
2022-07-31T16:58:41.242Z,16.54
2022-07-31T17:01:57.259Z,16.56
2022-07-31T17:04:03.878Z,16.54
2022-07-31T17:06:37.760Z,16.52
2022-07-31T17:09:15.749Z,16.52
2022-07-31T17:11:52.542Z,16.50
2022-07-31T17:14:24.089Z,16.51
2022-07-31T17:16:53.515Z,16.51
2022-07-31T17:19:42.333Z,16.51
2022-07-31T17:22:17.659Z,16.49
2022-07-31T17:24:51.307Z,16.46
2022-07-31T17:27:20.279Z,16.48
2022-07-31T17:29:48.543Z,16.51
2022-07-31T17:32:17.113Z,16.53
2022-07-31T17:34:46.371Z,16.55
2022-07-31T17:37:17.065Z,16.56
2022-07-31T17:39:45.579Z,16.58
2022-07-31T17:42:14.113Z,16.62
2022-07-31T17:44:41.865Z,16.66
2022-07-31T17:47:15.160Z,16.68
2022-07-31T17:49:43.127Z,16.70
2022-07-31T17:52:10.932Z,16.72
2022-07-31T17:54:38.845Z,16.74
2022-07-31T17:57:06.334Z,16.78
2022-07-31T17:59:34.070Z,16.81
2022-07-31T18:02:03.534Z,16.89
2022-07-31T18:04:39.452Z,16.93
2022-07-31T18:07:08.737Z,16.97
2022-07-31T18:09:36.865Z,17.02
2022-07-31T18:12:04.614Z,16.99
2022-07-31T18:14:31.856Z,16.99
2022-07-31T18:16:59.871Z,17.02
2022-07-31T18:19:27.605Z,17.04
2022-07-31T18:21:55.429Z,17.08
2022-07-31T18:24:24.004Z,17.12
2022-07-31T18:26:53.509Z,17.13
2022-07-31T18:29:21.561Z,17.11
2022-07-31T18:31:49.012Z,17.11
2022-07-31T18:34:16.790Z,17.11
2022-07-31T18:36:44.198Z,17.09
2022-07-31T18:39:12.020Z,17.06
2022-07-31T18:42:07.077Z,17.05
2022-07-31T18:44:35.764Z,17.01
2022-07-31T18:47:26.038Z,16.95
2022-07-31T18:50:59.211Z,16.88
2022-07-31T18:52:40.459Z,16.85
2022-07-31T18:55:09.065Z,16.84
2022-07-31T18:57:36.336Z,16.80
2022-07-31T19:00:07.591Z,16.79
2022-07-31T19:02:36.501Z,16.76
2022-07-31T19:05:04.020Z,16.73
2022-07-31T19:07:35.939Z,16.72
2022-07-31T19:10:07.474Z,16.70
2022-07-31T19:12:35.688Z,16.67
2022-07-31T19:15:04.575Z,16.64
2022-07-31T19:17:43.266Z,16.62
2022-07-31T19:20:14.919Z,16.57
2022-07-31T19:23:01.687Z,16.54
2022-07-31T19:25:59.467Z,16.51
2022-07-31T19:28:23.091Z,16.49
2022-07-31T19:30:55.700Z,16.45
2022-07-31T19:33:23.929Z,16.43
2022-07-31T19:35:56.951Z,16.40
2022-07-31T19:38:31.716Z,16.41
2022-07-31T19:41:00.698Z,16.39
2022-07-31T19:43:29.588Z,16.37
2022-07-31T19:46:09.915Z,16.34
2022-07-31T19:48:43.192Z,16.33
2022-07-31T19:51:13.435Z,16.32
2022-07-31T19:53:41.960Z,16.31
2022-07-31T19:56:11.042Z,16.29
2022-07-31T19:58:41.753Z,16.28
2022-07-31T20:01:11.489Z,16.27
2022-07-31T20:03:40.468Z,16.28
2022-07-31T20:06:13.334Z,16.29
2022-07-31T20:08:41.391Z,16.29
2022-07-31T20:11:09.292Z,16.27
2022-07-31T20:13:38.249Z,16.25
2022-07-31T20:16:06.856Z,16.23
2022-07-31T20:18:34.844Z,16.23
2022-07-31T20:21:10.011Z,16.22
2022-07-31T20:23:39.166Z,16.22
2022-07-31T20:26:24.995Z,16.22
2022-07-31T20:28:53.816Z,16.23
2022-07-31T20:31:21.869Z,16.23
2022-07-31T20:33:57.528Z,16.22
2022-07-31T20:36:28.358Z,16.22
2022-07-31T20:38:58.413Z,16.20
2022-07-31T20:41:30.040Z,16.21
2022-07-31T20:44:00.711Z,16.21
2022-07-31T20:46:30.306Z,16.20
2022-07-31T20:48:59.326Z,16.17
2022-07-31T20:51:28.819Z,16.12
2022-07-31T20:53:57.235Z,16.09
2022-07-31T20:56:25.083Z,16.10
2022-07-31T20:58:52.799Z,16.14
